createdAt,value
2019-03-21T00:02:07.945Z,2.86
2019-03-21T00:04:37.392Z,2.71
2019-03-21T00:07:06.817Z,2.66
2019-03-21T00:09:37.524Z,2.59
2019-03-21T00:12:11.719Z,2.50
2019-03-21T00:14:48.832Z,2.51
2019-03-21T00:17:40.489Z,2.51
2019-03-21T00:20:16.396Z,2.48
2019-03-21T00:22:45.905Z,2.26
2019-03-21T00:25:25.141Z,2.14
2019-03-21T00:27:54.582Z,2.08
2019-03-21T00:30:26.330Z,2.07
2019-03-21T00:32:57.056Z,2.10
2019-03-21T00:35:26.487Z,2.18
2019-03-21T00:37:55.914Z,2.06
2019-03-21T00:40:38.731Z,1.96
2019-03-21T00:43:11.375Z,1.96
2019-03-21T00:45:40.818Z,1.95
2019-03-21T00:48:14.996Z,2.00
2019-03-21T00:50:44.434Z,1.87
2019-03-21T00:53:13.865Z,1.91
2019-03-21T00:55:50.592Z,1.90
2019-03-21T00:58:20.027Z,1.92
2019-03-21T01:00:56.907Z,1.97
2019-03-21T01:03:26.601Z,1.91
2019-03-21T01:05:56.050Z,1.76
2019-03-21T01:08:25.478Z,1.85
2019-03-21T01:10:54.918Z,1.90
2019-03-21T01:13:28.417Z,1.88
2019-03-21T01:15:57.864Z,1.85
2019-03-21T01:18:27.367Z,2.00
2019-03-21T01:20:56.810Z,2.02
2019-03-21T01:23:26.233Z,2.04
2019-03-21T01:26:05.829Z,1.97
2019-03-21T01:28:35.260Z,1.97
2019-03-21T01:31:04.786Z,2.01
2019-03-21T01:33:34.204Z,1.95
2019-03-21T01:36:05.854Z,1.98
2019-03-21T01:38:35.283Z,1.76
2019-03-21T01:41:17.878Z,1.76
2019-03-21T01:43:47.304Z,1.73
2019-03-21T01:46:22.885Z,1.67
2019-03-21T01:48:52.323Z,1.62
2019-03-21T01:51:21.752Z,1.54
2019-03-21T01:53:51.700Z,1.49
2019-03-21T01:56:21.133Z,1.54
2019-03-21T01:58:51.084Z,1.51
2019-03-21T02:01:20.519Z,1.69
2019-03-21T02:03:49.947Z,1.69
2019-03-21T02:06:19.641Z,1.71
2019-03-21T02:08:49.070Z,1.67
2019-03-21T02:11:18.506Z,1.67
2019-03-21T02:13:47.931Z,1.58
2019-03-21T02:16:17.373Z,1.44
2019-03-21T02:18:46.801Z,1.45
2019-03-21T02:21:16.249Z,1.43
2019-03-21T02:23:45.681Z,1.61
2019-03-21T02:26:15.125Z,1.52
2019-03-21T02:28:44.559Z,1.50
2019-03-21T02:31:13.982Z,1.57
2019-03-21T02:33:45.678Z,1.37
2019-03-21T02:36:15.371Z,1.36
2019-03-21T02:38:44.806Z,1.23
2019-03-21T02:41:16.651Z,1.23
2019-03-21T02:43:46.098Z,1.13
2019-03-21T02:46:15.649Z,1.06
2019-03-21T02:48:45.044Z,1.03
2019-03-21T02:51:14.477Z,1.14
2019-03-21T02:53:43.930Z,1.21
2019-03-21T02:56:18.638Z,1.18
2019-03-21T02:58:48.087Z,1.17
2019-03-21T03:01:17.525Z,1.21
2019-03-21T03:03:46.960Z,1.10
2019-03-21T03:06:16.399Z,1.02
2019-03-21T03:08:45.836Z,1.01
2019-03-21T03:11:21.213Z,1.02
2019-03-21T03:13:51.974Z,1.08
2019-03-21T03:16:23.607Z,1.06
2019-03-21T03:18:53.058Z,1.14
2019-03-21T03:21:22.560Z,1.30
2019-03-21T03:23:52.002Z,1.27
2019-03-21T03:26:21.445Z,1.26
2019-03-21T03:28:50.870Z,1.07
2019-03-21T03:31:20.319Z,1.13
2019-03-21T03:33:49.841Z,1.11
2019-03-21T03:36:19.263Z,0.91
2019-03-21T03:38:48.713Z,0.92
2019-03-21T03:41:21.234Z,0.86
2019-03-21T03:43:50.683Z,0.76
2019-03-21T03:46:20.097Z,0.89
2019-03-21T03:48:49.546Z,0.81
2019-03-21T03:51:18.966Z,0.87
2019-03-21T03:53:48.400Z,0.87
2019-03-21T03:56:17.836Z,0.91
2019-03-21T03:59:03.528Z,0.80
2019-03-21T04:01:32.954Z,0.64
2019-03-21T04:04:02.710Z,0.57
2019-03-21T04:06:32.139Z,0.48
2019-03-21T04:09:01.577Z,0.48
2019-03-21T04:11:33.284Z,0.58
2019-03-21T04:14:02.746Z,0.59
2019-03-21T04:16:32.177Z,0.80
2019-03-21T04:19:01.900Z,0.72
2019-03-21T04:21:31.343Z,0.74
2019-03-21T04:24:00.774Z,0.87
2019-03-21T04:26:34.814Z,0.84
2019-03-21T04:29:04.271Z,0.72
2019-03-21T04:31:33.695Z,0.73
2019-03-21T04:34:08.083Z,0.62
2019-03-21T04:36:37.513Z,0.45
2019-03-21T04:39:09.890Z,0.43
2019-03-21T04:41:42.002Z,0.41
2019-03-21T04:44:11.439Z,0.51
2019-03-21T04:46:40.871Z,0.48
2019-03-21T04:49:10.316Z,0.47
2019-03-21T04:51:39.753Z,0.52
2019-03-21T04:54:09.196Z,0.48
2019-03-21T04:56:38.630Z,0.42
2019-03-21T04:59:08.070Z,0.41
2019-03-21T05:01:37.507Z,0.38
2019-03-21T05:04:06.947Z,0.38
2019-03-21T05:06:36.373Z,0.42
2019-03-21T05:09:09.221Z,0.38
2019-03-21T05:11:38.645Z,0.37
2019-03-21T05:14:08.079Z,0.55
2019-03-21T05:16:37.758Z,0.46
2019-03-21T05:19:07.200Z,0.36
2019-03-21T05:21:36.629Z,0.27
2019-03-21T05:24:06.077Z,0.23
2019-03-21T05:26:35.504Z,0.13
2019-03-21T05:29:04.942Z,0.22
2019-03-21T05:31:37.920Z,0.36
2019-03-21T05:34:07.342Z,0.35
2019-03-21T05:36:36.791Z,0.23
2019-03-21T05:39:10.019Z,0.38
2019-03-21T05:41:39.443Z,0.31
2019-03-21T05:44:22.545Z,0.36
2019-03-21T05:46:52.321Z,0.25
2019-03-21T05:49:21.756Z,0.26
2019-03-21T05:51:51.237Z,0.24
2019-03-21T05:54:20.674Z,0.35
2019-03-21T05:56:50.105Z,0.32
2019-03-21T05:59:19.547Z,0.41
2019-03-21T06:01:48.982Z,0.50
2019-03-21T06:04:18.429Z,0.52
2019-03-21T06:07:18.789Z,0.38
2019-03-21T06:09:48.232Z,0.26
2019-03-21T06:12:17.667Z,0.33
2019-03-21T06:14:54.504Z,0.34
2019-03-21T06:17:24.012Z,0.44
2019-03-21T06:20:26.814Z,0.60
2019-03-21T06:23:03.889Z,0.55
2019-03-21T06:25:47.124Z,0.62
2019-03-21T06:28:16.549Z,0.73
2019-03-21T06:30:45.984Z,0.79
2019-03-21T06:33:15.414Z,1.00
2019-03-21T06:35:44.862Z,1.03
2019-03-21T06:38:14.293Z,1.20
2019-03-21T06:40:44.026Z,1.12
2019-03-21T06:43:13.460Z,1.26
2019-03-21T06:45:48.018Z,1.39
2019-03-21T06:48:14.394Z,1.53
2019-03-21T06:50:43.832Z,1.63
2019-03-21T06:53:13.267Z,1.66
2019-03-21T06:55:42.719Z,1.73
2019-03-21T06:58:12.146Z,1.81
2019-03-21T07:00:42.022Z,1.85
2019-03-21T07:03:11.736Z,1.90
2019-03-21T07:05:41.237Z,1.95
2019-03-21T07:08:10.690Z,1.97
2019-03-21T07:10:40.132Z,2.06
2019-03-21T07:13:09.561Z,2.18
2019-03-21T07:15:39.018Z,2.23
2019-03-21T07:18:08.446Z,2.32
2019-03-21T07:20:38.189Z,2.36
2019-03-21T07:23:08.000Z,2.41
2019-03-21T07:25:37.439Z,2.49
2019-03-21T07:28:06.951Z,2.50
2019-03-21T07:30:36.399Z,2.61
2019-03-21T07:33:06.100Z,2.75
2019-03-21T07:35:35.549Z,2.90
2019-03-21T07:38:05.051Z,2.88
2019-03-21T07:40:34.604Z,3.03
2019-03-21T07:43:04.048Z,3.12
2019-03-21T07:45:33.477Z,3.21
2019-03-21T07:48:05.101Z,3.27
2019-03-21T07:50:34.078Z,3.33
2019-03-21T07:53:03.518Z,3.32
2019-03-21T07:55:32.953Z,3.35
2019-03-21T07:58:02.666Z,3.49
2019-03-21T08:00:32.119Z,3.47
2019-03-21T08:03:01.556Z,3.48
2019-03-21T08:05:39.877Z,3.55
2019-03-21T08:08:02.234Z,3.60
2019-03-21T08:10:31.667Z,3.66
2019-03-21T08:13:01.339Z,3.71
2019-03-21T08:15:30.775Z,3.78
2019-03-21T08:18:00.217Z,3.86
2019-03-21T08:20:29.661Z,3.92
2019-03-21T08:22:59.105Z,4.05
2019-03-21T08:25:28.533Z,4.11
2019-03-21T08:27:57.984Z,4.20
2019-03-21T08:30:35.519Z,4.28
2019-03-21T08:33:05.715Z,4.48
2019-03-21T08:35:35.170Z,4.60
2019-03-21T08:38:04.880Z,4.62
2019-03-21T08:40:34.328Z,4.74
2019-03-21T08:43:03.781Z,4.76
2019-03-21T08:45:33.211Z,4.83
2019-03-21T08:48:02.654Z,4.90
2019-03-21T08:50:32.105Z,4.95
2019-03-21T08:53:01.538Z,5.00
2019-03-21T08:55:30.972Z,5.14
2019-03-21T08:58:00.721Z,5.17
2019-03-21T09:00:34.399Z,5.24
2019-03-21T09:03:01.578Z,5.31
2019-03-21T09:05:31.007Z,5.43
2019-03-21T09:08:00.447Z,5.64
2019-03-21T09:10:29.877Z,5.73
2019-03-21T09:12:59.322Z,5.79
2019-03-21T09:15:28.753Z,5.88
2019-03-21T09:17:58.199Z,6.05
2019-03-21T09:20:27.630Z,6.15
2019-03-21T09:22:57.080Z,6.35
2019-03-21T09:25:26.509Z,6.49
2019-03-21T09:28:02.514Z,6.62
2019-03-21T09:30:27.099Z,6.70
2019-03-21T09:32:56.792Z,6.84
2019-03-21T09:35:26.221Z,6.98
2019-03-21T09:37:55.648Z,7.14
2019-03-21T09:40:25.086Z,7.33
2019-03-21T09:42:54.524Z,7.46
2019-03-21T09:45:23.971Z,7.52
2019-03-21T09:47:53.418Z,7.72
2019-03-21T09:50:30.678Z,7.84
2019-03-21T09:53:00.091Z,7.90
2019-03-21T09:55:29.529Z,7.96
2019-03-21T09:57:59.006Z,8.04
2019-03-21T10:00:38.153Z,8.14
2019-03-21T10:03:07.664Z,8.46
2019-03-21T10:05:37.095Z,8.57
2019-03-21T10:08:06.677Z,8.72
2019-03-21T10:10:36.116Z,9.17
2019-03-21T10:13:06.299Z,9.05
2019-03-21T10:15:35.724Z,9.17
2019-03-21T10:18:05.709Z,9.16
2019-03-21T10:20:35.213Z,10.06
2019-03-21T10:23:04.660Z,9.80
2019-03-21T10:25:34.451Z,9.80
2019-03-21T10:28:04.194Z,10.03
2019-03-21T10:30:39.932Z,9.98
2019-03-21T10:33:12.925Z,10.23
2019-03-21T10:35:42.439Z,10.26
2019-03-21T10:38:11.949Z,10.37
2019-03-21T10:40:41.941Z,10.32
2019-03-21T10:43:11.395Z,10.45
2019-03-21T10:45:40.825Z,10.48
2019-03-21T10:48:10.267Z,10.52
2019-03-21T10:50:41.949Z,10.78
2019-03-21T10:53:11.479Z,10.73
2019-03-21T10:55:40.912Z,11.14
2019-03-21T10:58:10.411Z,11.08
2019-03-21T11:00:39.931Z,11.51
2019-03-21T11:03:09.376Z,11.74
2019-03-21T11:05:38.896Z,11.69
2019-03-21T11:08:08.767Z,11.73
2019-03-21T11:10:38.217Z,11.62
2019-03-21T11:13:07.823Z,11.58
2019-03-21T11:15:37.270Z,11.77
2019-03-21T11:18:06.780Z,11.95
2019-03-21T11:20:40.383Z,11.86
2019-03-21T11:23:10.233Z,12.05
2019-03-21T11:25:39.699Z,12.00
2019-03-21T11:28:09.307Z,11.98
2019-03-21T11:30:43.652Z,11.93
2019-03-21T11:33:13.244Z,12.16
2019-03-21T11:35:42.754Z,12.22
2019-03-21T11:38:12.308Z,12.16
2019-03-21T11:40:41.842Z,12.18
2019-03-21T11:43:11.808Z,12.35
2019-03-21T11:45:41.501Z,12.52
2019-03-21T11:48:10.930Z,12.46
2019-03-21T11:50:40.408Z,12.88
2019-03-21T11:53:09.849Z,12.79
2019-03-21T11:55:39.316Z,12.76
2019-03-21T11:58:08.742Z,12.68
2019-03-21T12:00:44.436Z,13.00
2019-03-21T12:03:09.435Z,13.02
2019-03-21T12:05:38.888Z,12.90
2019-03-21T12:08:08.602Z,13.01
2019-03-21T12:10:38.056Z,12.93
2019-03-21T12:13:07.500Z,13.62
2019-03-21T12:15:36.956Z,13.95
2019-03-21T12:18:06.405Z,13.77
2019-03-21T12:20:35.933Z,13.91
2019-03-21T12:23:06.267Z,13.74
2019-03-21T12:25:35.734Z,13.67
2019-03-21T12:28:05.178Z,13.98
2019-03-21T12:30:37.826Z,14.09
2019-03-21T12:33:07.882Z,14.33
2019-03-21T12:35:37.326Z,14.18
2019-03-21T12:38:07.476Z,14.12
2019-03-21T12:40:37.031Z,14.29
2019-03-21T12:43:06.912Z,14.40
2019-03-21T12:45:36.372Z,14.22
2019-03-21T12:48:06.369Z,14.68
2019-03-21T12:50:35.886Z,14.36
2019-03-21T12:53:05.402Z,14.33
2019-03-21T12:55:35.259Z,14.41
2019-03-21T12:58:05.852Z,14.49
2019-03-21T13:00:39.969Z,14.43
2019-03-21T13:03:09.500Z,14.42
2019-03-21T13:05:39.036Z,14.87
2019-03-21T13:08:08.553Z,15.08
2019-03-21T13:10:38.005Z,14.91
2019-03-21T13:13:08.409Z,14.61
2019-03-21T13:15:38.012Z,14.72
2019-03-21T13:18:07.975Z,14.83
2019-03-21T13:20:37.492Z,14.65
2019-03-21T13:23:07.489Z,14.59
2019-03-21T13:25:37.235Z,14.58
2019-03-21T13:28:06.952Z,14.66
2019-03-21T13:30:36.846Z,14.98
2019-03-21T13:33:06.365Z,14.93
2019-03-21T13:35:35.965Z,14.93
2019-03-21T13:38:05.734Z,14.75
2019-03-21T13:40:35.208Z,14.86
2019-03-21T13:43:04.927Z,14.68
2019-03-21T13:45:34.382Z,14.63
2019-03-21T13:48:03.897Z,14.49
2019-03-21T13:50:33.354Z,14.48
2019-03-21T13:53:05.104Z,14.65
2019-03-21T13:55:34.124Z,14.84
2019-03-21T13:58:03.639Z,14.97
2019-03-21T14:00:33.084Z,14.91
2019-03-21T14:03:02.615Z,15.20
2019-03-21T14:05:32.063Z,15.07
2019-03-21T14:08:01.522Z,14.86
2019-03-21T14:10:32.312Z,14.88
2019-03-21T14:13:01.919Z,15.09
2019-03-21T14:15:31.357Z,15.20
2019-03-21T14:18:01.095Z,15.20
2019-03-21T14:20:30.544Z,15.30
2019-03-21T14:22:59.994Z,15.37
2019-03-21T14:25:29.534Z,15.31
2019-03-21T14:27:59.409Z,15.16
2019-03-21T14:30:28.962Z,15.11
2019-03-21T14:32:58.733Z,15.20
2019-03-21T14:35:28.220Z,15.43
2019-03-21T14:37:57.673Z,15.66
2019-03-21T14:40:27.136Z,15.61
2019-03-21T14:42:56.590Z,15.64
2019-03-21T14:45:26.048Z,15.57
2019-03-21T14:47:55.503Z,15.58
2019-03-21T14:50:24.956Z,15.65
2019-03-21T14:52:54.408Z,15.56
2019-03-21T14:55:23.870Z,15.45
2019-03-21T14:57:53.306Z,15.66
2019-03-21T15:00:22.743Z,16.04
2019-03-21T15:02:52.243Z,16.15
2019-03-21T15:05:21.697Z,16.04
2019-03-21T15:07:51.139Z,16.13
2019-03-21T15:10:20.653Z,16.31
2019-03-21T15:12:50.146Z,16.23
2019-03-21T15:15:19.625Z,16.20
2019-03-21T15:17:49.075Z,16.34
2019-03-21T15:20:18.796Z,16.56
2019-03-21T15:22:48.251Z,16.57
2019-03-21T15:25:19.165Z,16.50
2019-03-21T15:27:49.659Z,16.50
2019-03-21T15:30:22.194Z,16.47
2019-03-21T15:32:51.830Z,16.41
2019-03-21T15:35:21.745Z,16.48
2019-03-21T15:37:51.186Z,16.41
2019-03-21T15:40:20.636Z,16.37
2019-03-21T15:42:50.081Z,16.40
2019-03-21T15:45:23.910Z,16.77
2019-03-21T15:47:50.890Z,17.38
2019-03-21T15:50:38.791Z,20.37
2019-03-21T15:53:09.118Z,22.34
2019-03-21T15:55:38.563Z,23.43
2019-03-21T15:58:08.023Z,24.33
2019-03-21T16:00:43.226Z,25.03
2019-03-21T16:03:13.790Z,25.99
2019-03-21T16:05:43.316Z,27.45
2019-03-21T16:08:12.771Z,28.57
2019-03-21T16:10:42.222Z,28.95
2019-03-21T16:13:11.678Z,29.64
2019-03-21T16:15:41.124Z,29.55
2019-03-21T16:18:10.569Z,29.86
2019-03-21T16:20:40.098Z,29.94
2019-03-21T16:23:09.535Z,29.14
2019-03-21T16:25:39.008Z,28.73
2019-03-21T16:28:08.452Z,27.57
2019-03-21T16:30:37.920Z,27.90
2019-03-21T16:33:07.374Z,27.52
2019-03-21T16:35:36.819Z,27.74
2019-03-21T16:38:06.325Z,27.91
2019-03-21T16:40:35.789Z,27.51
2019-03-21T16:43:05.935Z,25.82
2019-03-21T16:45:35.697Z,24.92
2019-03-21T16:48:05.624Z,23.24
2019-03-21T16:50:35.258Z,22.04
2019-03-21T16:53:04.709Z,20.93
2019-03-21T16:55:34.160Z,19.83
2019-03-21T16:58:03.611Z,19.05
2019-03-21T17:00:33.892Z,18.63
2019-03-21T17:03:03.323Z,18.45
2019-03-21T17:05:32.790Z,17.87
2019-03-21T17:08:11.209Z,17.40
2019-03-21T17:10:33.400Z,16.92
2019-03-21T17:13:04.744Z,16.74
2019-03-21T17:15:34.016Z,16.46
2019-03-21T17:18:03.482Z,16.29
2019-03-21T17:20:33.271Z,16.05
2019-03-21T17:23:02.709Z,15.93
2019-03-21T17:25:32.159Z,15.77
2019-03-21T17:28:01.590Z,15.61
2019-03-21T17:30:31.045Z,15.40
2019-03-21T17:33:02.117Z,15.22
2019-03-21T17:35:31.539Z,15.11
2019-03-21T17:38:00.971Z,14.92
2019-03-21T17:40:30.423Z,14.78
2019-03-21T17:42:59.865Z,14.71
2019-03-21T17:45:29.309Z,14.46
2019-03-21T17:47:58.750Z,14.42
2019-03-21T17:50:28.213Z,14.26
2019-03-21T17:52:57.634Z,14.18
2019-03-21T17:55:27.087Z,14.02
2019-03-21T17:57:56.527Z,13.94
2019-03-21T18:00:31.781Z,13.85
2019-03-21T18:03:01.367Z,13.77
2019-03-21T18:05:30.814Z,13.70
2019-03-21T18:08:00.254Z,13.51
2019-03-21T18:10:36.064Z,13.37
2019-03-21T18:13:06.033Z,13.27
2019-03-21T18:15:35.486Z,13.09
2019-03-21T18:18:05.190Z,13.00
2019-03-21T18:20:34.631Z,12.91
2019-03-21T18:23:04.070Z,12.86
2019-03-21T18:25:33.520Z,12.79
2019-03-21T18:28:02.973Z,12.62
2019-03-21T18:30:32.858Z,12.56
2019-03-21T18:33:02.671Z,12.49
2019-03-21T18:35:32.130Z,12.32
2019-03-21T18:38:01.637Z,12.15
2019-03-21T18:40:31.087Z,12.07
2019-03-21T18:43:00.528Z,12.08
2019-03-21T18:45:29.981Z,11.93
2019-03-21T18:47:59.421Z,11.86
2019-03-21T18:50:28.875Z,11.80
2019-03-21T18:52:58.306Z,11.73
2019-03-21T18:55:27.750Z,11.59
2019-03-21T18:57:57.194Z,11.51
2019-03-21T19:00:26.636Z,11.37
2019-03-21T19:02:56.077Z,11.29
2019-03-21T19:05:25.535Z,11.15
2019-03-21T19:07:54.976Z,11.15
2019-03-21T19:10:24.430Z,11.03
2019-03-21T19:12:53.871Z,10.92
2019-03-21T19:15:23.311Z,10.78
2019-03-21T19:17:53.071Z,10.60
2019-03-21T19:20:22.531Z,10.48
2019-03-21T19:22:51.991Z,10.46
2019-03-21T19:25:21.696Z,10.28
2019-03-21T19:27:51.141Z,10.11
2019-03-21T19:30:21.713Z,10.00
2019-03-21T19:32:51.157Z,9.88
2019-03-21T19:35:20.666Z,9.77
2019-03-21T19:37:50.099Z,9.74
2019-03-21T19:40:22.266Z,9.70
2019-03-21T19:42:52.025Z,9.61
2019-03-21T19:45:21.546Z,9.57
2019-03-21T19:47:50.994Z,9.49
2019-03-21T19:50:21.923Z,9.43
2019-03-21T19:52:51.356Z,9.38
2019-03-21T19:55:30.162Z,9.34
2019-03-21T19:57:51.969Z,9.23
2019-03-21T20:00:23.142Z,9.12
2019-03-21T20:02:52.584Z,9.09
2019-03-21T20:05:22.099Z,9.02
2019-03-21T20:07:51.548Z,8.86
2019-03-21T20:10:22.335Z,8.75
2019-03-21T20:12:51.777Z,8.72
2019-03-21T20:15:21.393Z,8.67
2019-03-21T20:17:50.836Z,8.59
2019-03-21T20:20:20.343Z,8.55
2019-03-21T20:22:49.801Z,8.43
2019-03-21T20:25:19.232Z,8.35
2019-03-21T20:27:48.679Z,8.37
2019-03-21T20:30:21.200Z,8.33
2019-03-21T20:32:50.713Z,8.29
2019-03-21T20:35:20.144Z,8.28
2019-03-21T20:37:49.605Z,8.21
2019-03-21T20:40:20.783Z,8.13
2019-03-21T20:42:50.295Z,8.00
2019-03-21T20:45:20.984Z,7.77
2019-03-21T20:47:50.422Z,7.72
2019-03-21T20:50:20.031Z,7.67
2019-03-21T20:52:49.487Z,7.65
2019-03-21T20:55:18.930Z,7.66
2019-03-21T20:57:48.608Z,7.67
2019-03-21T21:00:22.805Z,7.58
2019-03-21T21:02:53.587Z,7.65
2019-03-21T21:05:23.469Z,7.59
2019-03-21T21:07:53.090Z,7.54
2019-03-21T21:10:22.528Z,7.51
2019-03-21T21:12:51.974Z,7.32
2019-03-21T21:15:21.408Z,7.17
2019-03-21T21:17:50.850Z,7.05
2019-03-21T21:20:20.361Z,7.06
2019-03-21T21:22:49.801Z,7.10
2019-03-21T21:25:19.233Z,7.14
2019-03-21T21:27:50.242Z,7.06
2019-03-21T21:30:21.919Z,6.99
2019-03-21T21:32:51.425Z,6.96
2019-03-21T21:35:20.851Z,6.85
2019-03-21T21:37:50.286Z,6.61
2019-03-21T21:40:19.782Z,6.53
2019-03-21T21:42:49.216Z,6.39
2019-03-21T21:45:19.427Z,6.28
2019-03-21T21:47:48.942Z,6.28
2019-03-21T21:50:19.305Z,6.32
2019-03-21T21:52:48.827Z,6.45
2019-03-21T21:55:18.259Z,6.54
2019-03-21T21:57:47.704Z,6.41
2019-03-21T22:00:22.037Z,6.21
2019-03-21T22:02:51.748Z,6.18
2019-03-21T22:05:21.252Z,5.97
2019-03-21T22:07:50.695Z,5.85
2019-03-21T22:10:20.426Z,5.75
2019-03-21T22:12:49.865Z,5.62
2019-03-21T22:15:19.464Z,5.59
2019-03-21T22:17:49.185Z,5.63
2019-03-21T22:20:18.683Z,5.64
2019-03-21T22:22:48.189Z,5.76
2019-03-21T22:25:17.622Z,5.62
2019-03-21T22:27:47.062Z,5.51
2019-03-21T22:30:19.575Z,5.47
2019-03-21T22:32:49.085Z,5.37
2019-03-21T22:35:18.520Z,5.34
2019-03-21T22:37:47.953Z,5.35
2019-03-21T22:40:19.298Z,5.35
2019-03-21T22:42:48.743Z,5.37
2019-03-21T22:45:18.690Z,5.35
2019-03-21T22:47:50.475Z,5.23
2019-03-21T22:50:19.442Z,5.23
2019-03-21T22:52:48.965Z,5.17
2019-03-21T22:55:18.419Z,5.07
2019-03-21T22:57:47.871Z,5.03
2019-03-21T23:00:29.823Z,5.07
2019-03-21T23:02:59.278Z,5.03
2019-03-21T23:05:28.704Z,5.02
2019-03-21T23:07:58.184Z,5.00
2019-03-21T23:10:27.605Z,4.98
2019-03-21T23:12:57.055Z,4.94
2019-03-21T23:15:26.487Z,4.91
2019-03-21T23:17:55.929Z,4.90
2019-03-21T23:20:25.385Z,4.84
2019-03-21T23:22:54.812Z,4.75
2019-03-21T23:25:24.251Z,4.70
2019-03-21T23:27:53.685Z,4.69
2019-03-21T23:30:23.130Z,4.60
2019-03-21T23:32:52.574Z,4.46
2019-03-21T23:35:22.016Z,4.33
2019-03-21T23:37:51.539Z,4.44
2019-03-21T23:40:20.971Z,4.41
2019-03-21T23:42:50.416Z,4.36
2019-03-21T23:45:20.246Z,4.36
2019-03-21T23:47:49.958Z,4.34
2019-03-21T23:50:19.393Z,4.36
2019-03-21T23:52:48.840Z,4.35
2019-03-21T23:55:18.280Z,4.25
2019-03-21T23:57:47.728Z,4.22
